Time;durP1;ratioP1;P1;durP2;ratioP2;P2;SDS_P1;SDS_P2;PMS_P1;PMS_P2;Temp;Humidity;BMP_temperature;BMP_pressure;BME280_temperature;BME280_humidity;BME280_pressure;Samples;Min_cycle;Max_cycle;Signal;HPM_P1;HPM_P2
2022/01/18 00:01:48;;;;;;;14.13;7.75;;;5.20;87.20;;;;;;5052423;28;20225;-57
2022/01/18 00:04:15;;;;;;;16.20;9.00;;;5.10;87.90;;;;;;5052401;28;20205;-58
2022/01/18 00:06:46;;;;;;;16.90;9.88;;;5.10;88.30;;;;;;5052373;28;20232;-59
2022/01/18 00:09:14;;;;;;;15.88;9.50;;;5.20;88.00;;;;;;5052460;28;20256;-60
2022/01/18 00:11:45;;;;;;;15.07;7.93;;;5.20;87.70;;;;;;5051992;28;20513;-59
2022/01/18 00:14:23;;;;;;;17.30;8.95;;;5.20;88.50;;;;;;5050939;28;20208;-59
2022/01/18 00:17:03;;;;;;;14.32;9.48;;;5.30;88.00;;;;;;5052273;28;20205;-56
2022/01/18 00:19:30;;;;;;;14.20;8.65;;;5.40;88.20;;;;;;5052236;28;20259;-56
2022/01/18 00:22:10;;;;;;;13.80;8.55;;;5.30;87.50;;;;;;5052259;28;20229;-58
2022/01/18 00:24:40;;;;;;;12.82;8.38;;;5.30;87.40;;;;;;5052099;28;20205;-58
2022/01/18 00:27:11;;;;;;;15.68;9.27;;;5.40;87.80;;;;;;5052082;28;20239;-58
2022/01/18 00:29:44;;;;;;;15.50;8.32;;;5.40;87.00;;;;;;5050942;28;20201;-56
2022/01/18 00:32:18;;;;;;;18.45;10.02;;;5.40;87.20;;;;;;5052167;28;20206;-56
2022/01/18 00:34:49;;;;;;;19.20;9.85;;;5.50;87.10;;;;;;5052022;28;20202;-58
2022/01/18 00:37:33;;;;;;;18.88;10.65;;;5.50;87.50;;;;;;5051978;28;20209;-59
2022/01/18 00:40:01;;;;;;;14.93;9.00;;;5.70;87.30;;;;;;5055056;28;20240;-56
2022/01/18 00:42:28;;;;;;;15.68;9.35;;;5.70;86.50;;;;;;5055615;28;20237;-57
2022/01/18 00:44:55;;;;;;;15.35;9.57;;;5.70;86.70;;;;;;5054419;28;20209;-58
2022/01/18 00:47:22;;;;;;;15.05;9.18;;;5.70;86.50;;;;;;5055504;28;20205;-56
2022/01/18 00:49:57;;;;;;;17.33;9.88;;;5.60;86.40;;;;;;5055607;28;20209;-56
2022/01/18 00:52:24;;;;;;;19.25;10.10;;;5.80;86.50;;;;;;5055710;28;20266;-60
2022/01/18 00:54:52;;;;;;;19.25;10.52;;;5.80;86.40;;;;;;5055590;28;20212;-58
2022/01/18 00:57:20;;;;;;;15.20;9.18;;;5.80;86.00;;;;;;5055237;28;20197;-56
2022/01/18 00:59:47;;;;;;;16.65;9.95;;;5.90;85.90;;;;;;5054053;28;20682;-58
2022/01/18 01:02:14;;;;;;;19.30;9.27;;;6.00;85.80;;;;;;5055339;28;20229;-57
2022/01/18 01:04:47;;;;;;;18.98;8.55;;;6.00;85.20;;;;;;5055405;28;20567;-58
2022/01/18 01:07:15;;;;;;;17.55;9.75;;;5.90;85.50;;;;;;5055264;28;20255;-60
2022/01/18 01:09:42;;;;;;;15.82;9.60;;;5.90;85.70;;;;;;5055237;28;20660;-59
2022/01/18 01:12:11;;;;;;;16.25;10.10;;;5.90;85.90;;;;;;5054910;28;20347;-60
2022/01/18 01:14:40;;;;;;;14.90;9.05;;;5.90;85.60;;;;;;5053741;28;20671;-60
2022/01/18 01:17:19;;;;;;;15.77;10.32;;;5.90;85.80;;;;;;5055116;28;20640;-60
2022/01/18 01:34:04;;;;;;;14.80;8.63;;;6.10;85.70;;;;;;5054847;28;20209;-60
2022/01/18 01:42:07;;;;;;;15.95;9.35;;;6.30;85.50;;;;;;5054447;28;20722;-60
2022/01/18 01:44:42;;;;;;;16.67;9.55;;;6.40;85.20;;;;;;5053301;28;20678;-61
2022/01/18 01:47:12;;;;;;;17.00;10.35;;;6.20;84.80;;;;;;5054600;28;20205;-61
2022/01/18 01:49:40;;;;;;;17.65;10.30;;;6.20;85.20;;;;;;5054268;28;20205;-58
2022/01/18 01:52:09;;;;;;;18.33;9.55;;;6.20;85.20;;;;;;5053870;28;20214;-60
2022/01/18 01:54:36;;;;;;;17.40;10.15;;;6.30;85.30;;;;;;5054477;28;20205;-60
2022/01/18 01:57:03;;;;;;;18.35;9.80;;;6.40;85.20;;;;;;5054140;28;20208;-59
2022/01/18 01:59:31;;;;;;;15.63;9.35;;;6.40;85.20;;;;;;5052972;28;20207;-59
2022/01/18 02:01:57;;;;;;;19.40;10.23;;;6.50;84.90;;;;;;5054169;28;20319;-60
2022/01/18 02:04:26;;;;;;;21.02;10.40;;;6.40;84.80;;;;;;5054092;28;20292;-60
2022/01/18 02:06:53;;;;;;;18.35;11.10;;;6.40;84.70;;;;;;5053994;28;20235;-60
2022/01/18 02:09:19;;;;;;;16.08;9.38;;;6.40;84.90;;;;;;5054075;28;20212;-60
2022/01/18 02:11:47;;;;;;;15.13;9.77;;;6.40;84.80;;;;;;5053755;28;20233;-59
2022/01/18 02:14:18;;;;;;;21.55;10.85;;;6.50;84.80;;;;;;5052808;28;20198;-60
2022/01/18 02:22:17;;;;;;;16.50;10.05;;;6.40;84.70;;;;;;5053869;28;20271;-60
2022/01/18 02:24:44;;;;;;;17.88;10.77;;;6.40;85.00;;;;;;5053780;28;20674;-60
2022/01/18 02:27:11;;;;;;;19.73;11.48;;;6.40;84.80;;;;;;5053599;28;20301;-61
2022/01/18 02:29:38;;;;;;;21.08;12.00;;;6.30;85.10;;;;;;5052370;28;20255;-62
2022/01/18 02:32:06;;;;;;;22.98;12.55;;;6.40;85.10;;;;;;5053708;28;20215;-61
2022/01/18 02:34:33;;;;;;;22.17;12.05;;;6.40;84.90;;;;;;5053698;28;20201;-61
2022/01/18 02:37:03;;;;;;;22.02;12.57;;;6.20;84.90;;;;;;5053625;28;20209;-62
2022/01/18 02:39:32;;;;;;;20.95;11.65;;;6.20;85.60;;;;;;5053548;28;20209;-61
2022/01/18 02:42:02;;;;;;;23.02;11.75;;;6.20;85.50;;;;;;5053294;28;20308;-61
2022/01/18 02:44:30;;;;;;;18.63;11.30;;;6.30;85.50;;;;;;5052145;28;20217;-60
2022/01/18 02:46:58;;;;;;;19.27;11.43;;;6.40;85.30;;;;;;5053478;28;20237;-58
2022/01/18 02:49:25;;;;;;;18.90;11.55;;;6.40;84.70;;;;;;5053255;28;20567;-61
2022/01/18 02:51:52;;;;;;;23.02;12.80;;;6.40;85.00;;;;;;5053422;28;20300;-61
2022/01/18 02:54:19;;;;;;;21.10;11.88;;;6.40;85.00;;;;;;5053363;28;20201;-56
2022/01/18 02:56:53;;;;;;;17.52;11.20;;;6.50;84.80;;;;;;5053139;28;20718;-59
2022/01/18 02:59:30;;;;;;;20.75;12.40;;;6.40;84.60;;;;;;5051836;28;20690;-61
2022/01/18 03:04:43;;;;;;;20.15;12.40;;;6.40;84.90;;;;;;5053113;28;20203;-57
2022/01/18 03:07:11;;;;;;;19.17;11.30;;;6.40;84.90;;;;;;5052891;28;20216;-61
2022/01/18 03:09:38;;;;;;;22.50;12.38;;;6.40;84.80;;;;;;5053061;28;20286;-57
2022/01/18 03:12:08;;;;;;;19.20;11.25;;;6.40;84.40;;;;;;5052678;28;20247;-60
2022/01/18 03:14:35;;;;;;;17.73;11.15;;;6.40;84.90;;;;;;5051768;28;20202;-60
2022/01/18 03:17:02;;;;;;;20.92;12.60;;;6.40;84.90;;;;;;5052988;28;20202;-58
2022/01/18 03:19:29;;;;;;;24.05;11.82;;;6.50;84.90;;;;;;5052985;28;20208;-59
2022/01/18 03:21:57;;;;;;;24.30;11.98;;;6.50;84.70;;;;;;5052674;28;20205;-58
2022/01/18 03:29:55;;;;;;;25.77;13.30;;;6.40;84.60;;;;;;5051526;28;20212;-59
2022/01/18 03:32:22;;;;;;;22.48;12.50;;;6.40;84.40;;;;;;5052624;28;20690;-61
2022/01/18 03:34:49;;;;;;;24.10;12.95;;;6.40;84.60;;;;;;5052779;28;20220;-62
2022/01/18 03:37:16;;;;;;;24.77;14.85;;;6.40;84.60;;;;;;5052739;28;20656;-60
2022/01/18 03:39:43;;;;;;;23.02;13.00;;;6.50;84.60;;;;;;5052785;28;20209;-59
2022/01/18 03:42:34;;;;;;;21.40;12.00;;;6.50;84.40;;;;;;5052484;28;20311;-61
2022/01/18 03:45:04;;;;;;;17.38;11.18;;;6.60;84.30;;;;;;5051406;28;20216;-62
2022/01/18 03:47:31;;;;;;;20.45;11.95;;;6.50;84.10;;;;;;5052637;28;20274;-61
2022/01/18 03:49:58;;;;;;;24.48;12.65;;;6.40;84.30;;;;;;5052628;28;20652;-60
2022/01/18 03:52:25;;;;;;;20.70;12.02;;;6.40;84.20;;;;;;5052519;28;20209;-61
2022/01/18 03:54:53;;;;;;;20.73;11.95;;;6.40;84.30;;;;;;5052490;28;20208;-61
2022/01/18 03:57:22;;;;;;;21.95;12.73;;;6.30;84.80;;;;;;5052376;28;20550;-59
2022/01/18 03:59:49;;;;;;;30.00;13.32;;;6.30;84.90;;;;;;5051210;28;20205;-60
2022/01/18 04:02:16;;;;;;;21.25;11.77;;;6.40;84.90;;;;;;5052379;28;20312;-60
2022/01/18 04:04:43;;;;;;;23.67;12.40;;;6.40;84.60;;;;;;5052454;28;20201;-62
2022/01/18 04:07:11;;;;;;;24.15;12.57;;;6.40;84.70;;;;;;5052373;28;20205;-61
2022/01/18 04:09:38;;;;;;;25.52;14.38;;;6.40;84.40;;;;;;5052311;28;20584;-58
2022/01/18 04:12:06;;;;;;;26.40;13.60;;;6.40;84.60;;;;;;5052007;28;20736;-60
2022/01/18 04:14:34;;;;;;;26.95;14.27;;;6.30;84.40;;;;;;5053583;28;20212;-61
2022/01/18 04:17:08;;;;;;;22.42;13.23;;;6.40;84.70;;;;;;5056133;28;20212;-61
2022/01/18 04:27:49;;;;;;;26.58;14.68;;;6.40;84.30;;;;;;5033090;28;20201;-59
2022/01/18 04:30:18;;;;;;;24.42;13.05;;;6.40;84.40;;;;;;5055296;28;20267;-61
2022/01/18 04:32:44;;;;;;;23.52;13.30;;;6.40;84.50;;;;;;5055244;28;20329;-61
2022/01/18 04:35:12;;;;;;;23.05;13.35;;;6.40;84.60;;;;;;5055855;28;20224;-61
2022/01/18 04:37:38;;;;;;;23.48;12.88;;;6.50;84.50;;;;;;5055845;28;20209;-57
2022/01/18 04:40:13;;;;;;;29.10;14.10;;;6.50;84.40;;;;;;5055836;28;20503;-61
2022/01/18 04:42:58;;;;;;;24.08;13.82;;;6.50;84.40;;;;;;5055635;28;20225;-60
2022/01/18 04:48:29;;;;;;;29.75;15.70;;;6.60;84.10;;;;;;5055732;28;20208;-62
2022/01/18 04:50:57;;;;;;;28.50;14.77;;;6.60;84.10;;;;;;5055730;28;20275;-61
2022/01/18 04:53:26;;;;;;;27.92;14.70;;;6.60;83.90;;;;;;5055555;28;20205;-61
2022/01/18 04:55:56;;;;;;;26.45;14.43;;;6.60;83.90;;;;;;5055408;28;20567;-59
2022/01/18 04:58:24;;;;;;;26.38;14.55;;;6.50;83.80;;;;;;5053954;28;20248;-58
2022/01/18 05:00:54;;;;;;;27.23;14.50;;;6.50;83.70;;;;;;5055389;28;20205;-62
2022/01/18 05:03:21;;;;;;;27.02;13.85;;;6.50;83.80;;;;;;5055366;28;20240;-58
2022/01/18 05:05:52;;;;;;;32.08;15.88;;;6.50;83.80;;;;;;5055251;28;20208;-60
2022/01/18 05:08:18;;;;;;;29.95;15.65;;;6.50;83.80;;;;;;5055291;28;20255;-61
2022/01/18 05:10:51;;;;;;;31.25;16.33;;;6.50;83.70;;;;;;5055114;28;20225;-59
2022/01/18 05:13:34;;;;;;;28.75;14.65;;;6.50;83.60;;;;;;5053685;28;20237;-59
2022/01/18 05:16:19;;;;;;;29.17;15.02;;;6.50;83.70;;;;;;5055134;28;20286;-61
2022/01/18 05:19:03;;;;;;;28.05;14.70;;;6.50;83.70;;;;;;5055050;28;20197;-62
2022/01/18 05:21:33;;;;;;;25.52;13.73;;;6.50;83.60;;;;;;5055200;28;20259;-61
2022/01/18 05:24:00;;;;;;;24.27;13.70;;;6.40;83.40;;;;;;5054943;28;20239;-58
2022/01/18 05:26:29;;;;;;;32.70;15.35;;;6.40;83.60;;;;;;5053877;28;20201;-59
2022/01/18 05:28:57;;;;;;;29.63;15.18;;;6.30;83.60;;;;;;5053582;28;20298;-61
2022/01/18 05:31:25;;;;;;;28.75;14.30;;;6.30;83.70;;;;;;5054872;28;20213;-57
2022/01/18 05:33:53;;;;;;;30.95;15.63;;;6.30;83.90;;;;;;5054809;28;20216;-61
2022/01/18 05:36:20;;;;;;;30.13;15.45;;;6.30;83.90;;;;;;5054730;28;20212;-60
2022/01/18 05:38:47;;;;;;;29.63;15.35;;;6.30;83.90;;;;;;5054642;28;20202;-61
2022/01/18 05:41:14;;;;;;;27.27;14.50;;;6.30;83.80;;;;;;5054667;28;20209;-59
2022/01/18 05:43:41;;;;;;;24.40;13.68;;;6.30;83.90;;;;;;5053159;28;20233;-58
2022/01/18 05:46:08;;;;;;;27.98;13.77;;;6.30;83.90;;;;;;5054537;28;20213;-59
2022/01/18 05:48:36;;;;;;;28.52;14.00;;;6.40;83.90;;;;;;5054502;28;20209;-61
2022/01/18 05:51:03;;;;;;;33.88;16.63;;;6.30;83.80;;;;;;5054398;28;20300;-61
2022/01/18 05:53:31;;;;;;;34.78;16.67;;;6.20;84.00;;;;;;5054413;28;20300;-60
2022/01/18 05:55:58;;;;;;;32.10;15.90;;;6.20;84.00;;;;;;5054457;28;20212;-60
2022/01/18 05:58:25;;;;;;;28.58;15.15;;;6.20;84.00;;;;;;5052816;28;20198;-60
2022/01/18 06:00:54;;;;;;;28.52;15.13;;;6.20;84.10;;;;;;5054289;28;20210;-61
2022/01/18 06:03:27;;;;;;;28.10;14.75;;;6.10;84.10;;;;;;5054162;28;20225;-58
2022/01/18 06:08:41;;;;;;;25.90;13.30;;;6.10;84.30;;;;;;5053951;28;20247;-61
2022/01/18 06:11:08;;;;;;;31.85;15.20;;;6.10;84.40;;;;;;5054063;28;20660;-61
2022/01/18 06:13:35;;;;;;;31.80;16.58;;;6.00;84.70;;;;;;5052488;28;20243;-60
2022/01/18 06:16:02;;;;;;;28.15;14.23;;;6.00;84.70;;;;;;5053912;28;20686;-61
2022/01/18 06:18:29;;;;;;;26.50;14.77;;;6.00;85.10;;;;;;5053861;28;20623;-61
2022/01/18 06:20:58;;;;;;;33.65;15.32;;;5.90;85.00;;;;;;5053783;28;20715;-59
2022/01/18 06:23:25;;;;;;;27.98;14.95;;;5.90;85.10;;;;;;5053593;28;20256;-59
2022/01/18 06:25:53;;;;;;;29.02;16.08;;;5.80;85.50;;;;;;5053782;28;20197;-58
2022/01/18 06:28:19;;;;;;;29.33;15.25;;;5.80;85.80;;;;;;5052312;28;20533;-60
2022/01/18 06:30:46;;;;;;;25.88;14.88;;;5.80;85.80;;;;;;5053605;28;20208;-61
2022/01/18 06:33:13;;;;;;;26.83;14.27;;;5.90;85.50;;;;;;5053535;28;20297;-58
2022/01/18 06:35:40;;;;;;;26.52;14.48;;;5.90;85.40;;;;;;5053658;28;20244;-58
2022/01/18 06:38:10;;;;;;;25.90;13.40;;;5.80;85.50;;;;;;5053121;28;20215;-61
2022/01/18 06:40:38;;;;;;;28.38;14.40;;;5.80;85.70;;;;;;5053529;28;20198;-57
2022/01/18 06:43:05;;;;;;;27.02;13.35;;;5.70;85.70;;;;;;5052022;28;20224;-60
2022/01/18 06:45:32;;;;;;;26.60;14.13;;;5.70;86.10;;;;;;5053439;28;20205;-60
2022/01/18 06:47:59;;;;;;;30.92;14.73;;;5.80;86.20;;;;;;5053346;28;20237;-60
2022/01/18 06:50:26;;;;;;;33.50;14.00;;;5.80;85.80;;;;;;5053107;28;20205;-61
2022/01/18 06:52:53;;;;;;;32.60;16.08;;;5.70;85.60;;;;;;5053158;28;20207;-61
2022/01/18 06:55:21;;;;;;;31.50;15.80;;;5.70;86.10;;;;;;5052993;28;20244;-58
2022/01/18 06:57:48;;;;;;;27.35;13.98;;;5.50;86.20;;;;;;5053013;28;20205;-59
2022/01/18 07:00:16;;;;;;;28.05;15.00;;;5.60;86.20;;;;;;5051796;28;20198;-60
2022/01/18 07:02:43;;;;;;;31.23;16.10;;;5.70;86.20;;;;;;5053016;28;20197;-57
2022/01/18 07:05:11;;;;;;;31.27;16.20;;;5.70;86.00;;;;;;5052790;28;20229;-60
2022/01/18 07:07:38;;;;;;;25.70;14.45;;;5.60;85.90;;;;;;5053037;28;20224;-61
2022/01/18 07:10:06;;;;;;;31.17;15.73;;;5.60;86.20;;;;;;5052838;28;20217;-60
2022/01/18 07:12:35;;;;;;;28.85;15.45;;;5.60;86.10;;;;;;5052637;28;20240;-61
2022/01/18 07:15:01;;;;;;;27.80;15.18;;;5.60;86.20;;;;;;5051592;28;20209;-60
2022/01/18 07:17:29;;;;;;;28.33;15.57;;;5.70;86.20;;;;;;5052815;28;20209;-60
2022/01/18 07:19:56;;;;;;;26.15;14.52;;;5.80;85.90;;;;;;5052893;28;20208;-60
2022/01/18 07:22:22;;;;;;;30.88;15.85;;;5.80;85.70;;;;;;5052814;28;20268;-62
2022/01/18 07:24:55;;;;;;;32.78;14.48;;;5.90;85.80;;;;;;5052487;28;20234;-61
2022/01/18 07:27:22;;;;;;;28.85;14.90;;;5.80;85.40;;;;;;5052505;28;20209;-59
2022/01/18 07:29:50;;;;;;;31.85;16.02;;;5.70;85.80;;;;;;5051476;28;20577;-61
2022/01/18 07:32:17;;;;;;;31.50;15.68;;;5.80;85.80;;;;;;5052579;28;20284;-59
2022/01/18 07:34:51;;;;;;;29.73;15.40;;;5.90;85.80;;;;;;5052677;28;20212;-60
2022/01/18 07:37:18;;;;;;;30.10;14.70;;;5.90;85.20;;;;;;5052464;28;20212;-59
2022/01/18 07:39:45;;;;;;;30.33;16.25;;;5.90;85.40;;;;;;5052486;28;20202;-59
2022/01/18 07:42:12;;;;;;;29.98;15.25;;;5.90;85.40;;;;;;5052382;28;20296;-60
2022/01/18 07:44:39;;;;;;;31.85;15.40;;;5.80;85.00;;;;;;5050974;28;20265;-56
2022/01/18 07:47:07;;;;;;;29.83;14.80;;;5.90;85.60;;;;;;5052510;28;20237;-56
2022/01/18 07:49:34;;;;;;;28.67;15.23;;;6.00;85.50;;;;;;5055059;28;20287;-56
2022/01/18 07:52:01;;;;;;;26.88;14.57;;;6.10;85.20;;;;;;5056659;28;20205;-59
2022/01/18 07:54:28;;;;;;;30.33;14.75;;;6.20;85.10;;;;;;5056615;28;20288;-57
2022/01/18 07:56:54;;;;;;;37.95;18.20;;;6.20;84.40;;;;;;5056585;28;20251;-60
2022/01/18 07:59:21;;;;;;;29.15;14.32;;;6.30;84.40;;;;;;5054869;28;20212;-56
2022/01/18 08:01:48;;;;;;;34.08;15.80;;;6.30;84.80;;;;;;5056349;28;20201;-59
2022/01/18 08:04:16;;;;;;;29.02;15.25;;;6.30;84.60;;;;;;5056273;28;20320;-59
2022/01/18 08:06:43;;;;;;;26.88;14.75;;;6.40;84.20;;;;;;5056252;28;20296;-60
2022/01/18 08:09:10;;;;;;;29.35;13.82;;;6.30;84.40;;;;;;5056286;28;20252;-60
2022/01/18 08:11:37;;;;;;;29.27;14.32;;;6.30;83.90;;;;;;5056276;28;20204;-58
2022/01/18 08:14:04;;;;;;;25.20;14.70;;;6.40;84.50;;;;;;5054602;28;20214;-59
2022/01/18 08:16:49;;;;;;;27.80;15.00;;;6.40;84.60;;;;;;5056201;28;20205;-61
2022/01/18 08:19:18;;;;;;;21.50;13.40;;;6.50;84.20;;;;;;5056134;28;20201;-58
2022/01/18 08:21:45;;;;;;;27.02;15.10;;;6.50;83.90;;;;;;5056078;28;20214;-60
2022/01/18 08:24:12;;;;;;;25.08;14.90;;;6.50;84.00;;;;;;5055906;28;20229;-59
2022/01/18 08:26:39;;;;;;;27.42;14.68;;;6.30;84.00;;;;;;5056105;28;20257;-61
2022/01/18 08:29:06;;;;;;;30.38;15.70;;;6.30;85.20;;;;;;5054547;28;20201;-59
2022/01/18 08:31:32;;;;;;;28.77;15.82;;;6.30;85.20;;;;;;5055878;28;20256;-59
2022/01/18 08:33:59;;;;;;;27.40;16.13;;;6.30;84.80;;;;;;5055751;28;20300;-60
2022/01/18 08:36:27;;;;;;;28.40;16.05;;;6.30;84.90;;;;;;5055898;28;20208;-61
2022/01/18 08:38:54;;;;;;;32.22;16.85;;;6.40;84.60;;;;;;5055728;28;20212;-58
2022/01/18 08:41:22;;;;;;;28.33;15.05;;;6.40;84.40;;;;;;5055780;28;20563;-60
2022/01/18 08:43:49;;;;;;;29.58;16.30;;;6.30;84.00;;;;;;5054153;28;20699;-61
2022/01/18 08:46:17;;;;;;;30.30;15.85;;;6.50;84.50;;;;;;5055523;28;20208;-59
2022/01/18 08:48:43;;;;;;;25.35;15.75;;;6.60;84.20;;;;;;5055607;28;20208;-59
2022/01/18 08:51:10;;;;;;;27.67;15.65;;;6.50;83.40;;;;;;5055573;28;20675;-59
2022/01/18 08:53:39;;;;;;;28.65;15.95;;;6.60;83.70;;;;;;5055340;28;20293;-57
2022/01/18 08:56:06;;;;;;;29.88;14.65;;;6.60;83.70;;;;;;5055351;28;20577;-58
2022/01/18 08:58:34;;;;;;;27.42;16.08;;;6.60;83.20;;;;;;5053948;28;20643;-60
2022/01/18 09:01:01;;;;;;;28.90;15.93;;;6.50;83.40;;;;;;5055170;28;20554;-59
2022/01/18 09:03:28;;;;;;;31.85;15.82;;;6.40;83.90;;;;;;5055274;28;20601;-57
2022/01/18 09:05:56;;;;;;;25.55;15.70;;;6.40;84.10;;;;;;5055125;28;20205;-60
2022/01/18 09:08:23;;;;;;;31.70;17.00;;;6.50;84.30;;;;;;5055027;28;20584;-58
2022/01/18 09:10:52;;;;;;;30.92;16.83;;;6.50;84.10;;;;;;5055217;28;20225;-60
2022/01/18 09:13:21;;;;;;;27.85;15.77;;;6.50;83.90;;;;;;5053588;28;20233;-60
2022/01/18 09:15:48;;;;;;;30.75;15.65;;;6.50;84.40;;;;;;5055218;28;20205;-60
2022/01/18 09:18:15;;;;;;;35.17;17.10;;;6.60;84.20;;;;;;5054998;28;20251;-58
2022/01/18 09:20:42;;;;;;;28.65;16.65;;;6.70;84.10;;;;;;5054792;28;20224;-61
2022/01/18 09:23:09;;;;;;;27.25;15.75;;;6.70;83.30;;;;;;5055049;28;20248;-60
2022/01/18 09:25:36;;;;;;;26.95;15.00;;;6.70;83.50;;;;;;5054767;28;20235;-59
2022/01/18 09:28:05;;;;;;;29.95;16.05;;;6.80;83.40;;;;;;5053457;28;20213;-58
2022/01/18 09:30:34;;;;;;;30.42;15.93;;;6.90;83.70;;;;;;5054602;28;20316;-61
2022/01/18 09:33:02;;;;;;;32.33;17.15;;;7.10;83.50;;;;;;5054619;28;20201;-60
2022/01/18 09:35:29;;;;;;;24.48;14.60;;;7.10;82.40;;;;;;5054778;28;20209;-60
2022/01/18 09:37:56;;;;;;;27.45;15.30;;;7.20;82.70;;;;;;5054571;28;20682;-60
2022/01/18 09:40:23;;;;;;;21.60;14.75;;;7.20;82.70;;;;;;5054608;28;20210;-58
2022/01/18 09:42:55;;;;;;;21.42;14.15;;;7.30;82.50;;;;;;5054450;28;20292;-58
2022/01/18 09:45:26;;;;;;;28.67;13.68;;;7.40;82.10;;;;;;5054272;28;20237;-61
2022/01/18 09:47:55;;;;;;;25.73;14.70;;;7.60;81.50;;;;;;5054318;28;20690;-59
2022/01/18 09:50:27;;;;;;;28.15;14.18;;;7.60;81.30;;;;;;5054451;28;20212;-61
2022/01/18 09:52:55;;;;;;;25.23;14.00;;;7.70;80.60;;;;;;5054411;28;20212;-59
2022/01/18 09:55:24;;;;;;;20.83;12.85;;;7.70;79.70;;;;;;5054455;28;20292;-58
2022/01/18 09:57:51;;;;;;;19.45;12.30;;;7.50;80.00;;;;;;5054101;28;20205;-60
2022/01/18 10:00:19;;;;;;;21.08;12.05;;;7.60;81.00;;;;;;5053201;28;20208;-58
2022/01/18 10:02:48;;;;;;;21.80;12.50;;;7.70;80.50;;;;;;5054268;28;20201;-60
2022/01/18 10:05:23;;;;;;;18.48;11.85;;;7.80;80.60;;;;;;5054211;28;20225;-59
2022/01/18 10:07:59;;;;;;;20.42;13.38;;;7.90;80.10;;;;;;5053882;28;20303;-60
2022/01/18 10:10:41;;;;;;;22.33;13.63;;;7.90;78.60;;;;;;5054065;28;20300;-58
2022/01/18 10:13:09;;;;;;;22.02;12.90;;;7.90;79.60;;;;;;5051903;28;20237;-60
2022/01/18 10:15:36;;;;;;;26.50;14.60;;;8.00;79.60;;;;;;5054047;28;20213;-59
2022/01/18 10:18:09;;;;;;;19.13;11.82;;;8.10;79.30;;;;;;5053817;28;20296;-58
2022/01/18 10:20:52;;;;;;;20.30;12.02;;;8.00;78.80;;;;;;5053883;28;20292;-59
2022/01/18 10:23:22;;;;;;;21.73;12.07;;;7.90;78.90;;;;;;5053767;28;20213;-60
2022/01/18 10:25:50;;;;;;;18.95;10.75;;;7.70;77.90;;;;;;5053658;28;20320;-60
2022/01/18 10:28:33;;;;;;;20.35;12.15;;;7.40;79.30;;;;;;5052228;28;20284;-60
2022/01/18 10:31:05;;;;;;;18.58;10.68;;;7.40;79.60;;;;;;5053722;28;20205;-59
2022/01/18 10:33:46;;;;;;;22.00;13.00;;;7.60;79.60;;;;;;5053516;28;20225;-58
2022/01/18 10:36:16;;;;;;;26.25;13.32;;;7.60;78.80;;;;;;5053569;28;20247;-58
2022/01/18 10:38:45;;;;;;;23.27;13.25;;;7.40;78.80;;;;;;5053505;28;20564;-59
2022/01/18 10:41:28;;;;;;;20.58;12.98;;;7.10;80.70;;;;;;5053473;28;20678;-56
2022/01/18 10:44:06;;;;;;;21.05;12.05;;;7.00;79.30;;;;;;5051921;28;20220;-59
2022/01/18 10:46:38;;;;;;;13.27;10.13;;;6.90;80.30;;;;;;5053265;28;20284;-60
2022/01/18 10:49:07;;;;;;;14.75;8.00;;;7.10;80.50;;;;;;5053351;28;20210;-59
2022/01/18 10:51:36;;;;;;;11.45;8.32;;;7.30;80.00;;;;;;5053363;28;20203;-58
2022/01/18 10:54:05;;;;;;;12.98;8.32;;;7.50;79.50;;;;;;5053191;28;20689;-59
2022/01/18 10:56:43;;;;;;;11.98;8.68;;;7.70;77.10;;;;;;5053149;28;20298;-59
2022/01/18 10:59:21;;;;;;;13.27;9.40;;;7.60;76.10;;;;;;5051743;28;20201;-58
2022/01/18 11:02:05;;;;;;;11.18;8.57;;;7.60;76.50;;;;;;5053105;28;20201;-59
2022/01/18 11:04:33;;;;;;;15.57;10.23;;;7.70;77.30;;;;;;5052824;28;20276;-58
2022/01/18 11:07:03;;;;;;;14.32;9.23;;;7.70;78.00;;;;;;5052945;28;20229;-59
2022/01/18 11:09:31;;;;;;;14.85;10.02;;;7.80;77.40;;;;;;5053070;28;20504;-60
2022/01/18 11:11:58;;;;;;;13.48;9.60;;;8.00;76.80;;;;;;5052780;28;20236;-59
2022/01/18 11:14:25;;;;;;;16.17;10.65;;;7.90;77.80;;;;;;5051476;28;20287;-59
2022/01/18 11:16:56;;;;;;;16.73;11.50;;;7.90;76.40;;;;;;5052863;28;20649;-61
2022/01/18 11:19:35;;;;;;;19.00;12.00;;;7.80;78.40;;;;;;5053011;28;20213;-60
2022/01/18 11:22:08;;;;;;;15.70;12.82;;;8.00;77.70;;;;;;5052757;28;20212;-59
2022/01/18 11:24:38;;;;;;;15.00;11.63;;;8.30;77.40;;;;;;5051953;28;20232;-58
2022/01/18 11:27:08;;;;;;;16.20;12.00;;;9.50;73.10;;;;;;5052741;28;20652;-59
2022/01/18 11:29:36;;;;;;;15.73;11.43;;;10.90;73.70;;;;;;5051459;28;20209;-59
2022/01/18 11:32:04;;;;;;;13.52;12.10;;;12.80;67.30;;;;;;5052489;28;20669;-58
2022/01/18 11:34:39;;;;;;;16.55;13.13;;;14.00;62.70;;;;;;5052661;28;20201;-57
2022/01/18 11:37:18;;;;;;;14.85;13.45;;;14.60;57.80;;;;;;5052536;28;20213;-58
2022/01/18 11:39:45;;;;;;;18.88;13.80;;;15.00;61.00;;;;;;5052692;28;20562;-61
2022/01/18 11:42:13;;;;;;;17.17;13.75;;;14.90;58.00;;;;;;5052624;28;20549;-59
2022/01/18 11:44:41;;;;;;;15.13;13.32;;;13.80;59.60;;;;;;5050827;28;20229;-60
2022/01/18 11:47:09;;;;;;;13.23;11.93;;;13.10;62.00;;;;;;5052485;28;20202;-60
2022/01/18 11:49:45;;;;;;;12.40;10.88;;;12.70;61.90;;;;;;5052402;28;20201;-57
2022/01/18 11:52:33;;;;;;;18.38;14.10;;;11.90;64.10;;;;;;5052546;28;20284;-59
2022/01/18 11:55:00;;;;;;;15.68;12.45;;;11.10;65.10;;;;;;5052415;28;20291;-58
2022/01/18 11:57:37;;;;;;;12.90;11.40;;;10.90;67.70;;;;;;5052431;28;20206;-57
2022/01/18 12:00:27;;;;;;;13.23;11.93;;;11.10;67.30;;;;;;5050977;28;20211;-59
2022/01/18 12:02:56;;;;;;;11.88;10.88;;;11.10;65.40;;;;;;5052425;28;20285;-58
2022/01/18 12:05:25;;;;;;;13.85;12.13;;;10.90;66.80;;;;;;5052246;28;20233;-57
2022/01/18 12:08:02;;;;;;;12.77;11.57;;;10.30;65.30;;;;;;5052258;28;20308;-60
2022/01/18 12:10:45;;;;;;;14.52;13.02;;;9.50;67.80;;;;;;5052371;28;20572;-61
2022/01/18 12:13:23;;;;;;;13.45;12.18;;;9.20;69.50;;;;;;5048265;28;20241;-59
2022/01/18 12:15:52;;;;;;;11.13;10.13;;;9.00;70.80;;;;;;5052095;28;20682;-61
2022/01/18 12:18:21;;;;;;;10.93;9.82;;;9.00;71.10;;;;;;5052198;28;20212;-59
2022/01/18 12:20:50;;;;;;;12.05;9.35;;;8.70;70.90;;;;;;5052345;28;20251;-57
2022/01/18 12:23:21;;;;;;;12.20;9.85;;;8.40;72.30;;;;;;5052163;28;20211;-60
2022/01/18 12:25:58;;;;;;;9.32;8.50;;;8.80;72.70;;;;;;5052135;28;20640;-60
2022/01/18 12:32:18;;;;;;;13.40;12.25;;;13.30;63.60;;;;;;5034384;28;20190;-60
2022/01/18 12:34:48;;;;;;;13.25;12.13;;;14.40;59.60;;;;;;5053030;28;20201;-61
2022/01/18 12:37:36;;;;;;;13.95;12.63;;;13.90;59.70;;;;;;5055672;28;20629;-60
2022/01/18 12:40:08;;;;;;;12.20;10.52;;;13.20;61.00;;;;;;5055855;28;20548;-58
2022/01/18 12:45:24;;;;;;;12.82;11.48;;;11.90;62.70;;;;;;5055093;28;20232;-60
2022/01/18 12:47:54;;;;;;;12.43;11.23;;;11.30;64.60;;;;;;5055543;28;20208;-60
2022/01/18 12:50:23;;;;;;;11.32;10.30;;;10.80;64.50;;;;;;5055624;28;20236;-59
2022/01/18 12:52:51;;;;;;;11.73;10.27;;;10.10;66.50;;;;;;5055652;28;20539;-60
2022/01/18 12:55:32;;;;;;;13.52;11.15;;;9.60;68.20;;;;;;5055432;28;20687;-59
2022/01/18 12:58:05;;;;;;;12.60;11.43;;;9.30;69.00;;;;;;5054271;28;20209;-57
2022/01/18 13:00:44;;;;;;;13.25;11.88;;;8.90;69.90;;;;;;5055443;28;20212;-59
2022/01/18 13:03:17;;;;;;;12.60;10.15;;;8.70;70.70;;;;;;5055348;28;20201;-59
2022/01/18 13:05:45;;;;;;;12.18;11.02;;;8.70;70.70;;;;;;5055236;28;20240;-59
2022/01/18 13:08:14;;;;;;;12.10;10.10;;;8.30;71.90;;;;;;5055102;28;20806;-59
2022/01/18 13:10:44;;;;;;;10.52;9.45;;;8.00;73.70;;;;;;5055212;28;20571;-60
2022/01/18 13:13:14;;;;;;;9.70;8.80;;;7.90;73.00;;;;;;5053603;28;20728;-59
2022/01/18 13:24:34;;;;;;;10.23;9.02;;;7.60;73.90;;;;;;5054999;28;20209;-60
2022/01/18 13:27:10;;;;;;;9.27;8.35;;;7.60;73.60;;;;;;5054625;28;20700;-59
2022/01/18 13:29:37;;;;;;;7.15;6.18;;;7.40;74.00;;;;;;5053458;28;20357;-59
2022/01/18 13:32:08;;;;;;;9.18;8.27;;;7.40;74.10;;;;;;5054785;28;20732;-60
2022/01/18 13:34:38;;;;;;;7.25;6.57;;;7.20;74.50;;;;;;5054805;28;20288;-59
2022/01/18 13:37:07;;;;;;;8.45;7.75;;;7.10;75.60;;;;;;5054586;28;20213;-59
2022/01/18 13:39:39;;;;;;;9.25;8.23;;;7.20;75.00;;;;;;5054685;28;20216;-60
2022/01/18 13:42:11;;;;;;;8.18;7.32;;;7.10;75.10;;;;;;5054519;28;20205;-59
2022/01/18 13:44:38;;;;;;;8.25;7.55;;;7.30;74.90;;;;;;5053143;28;20716;-58
2022/01/18 13:47:13;;;;;;;8.68;7.97;;;7.40;74.20;;;;;;5053532;28;20287;-60
2022/01/18 13:49:40;;;;;;;9.60;8.70;;;7.40;74.10;;;;;;5054324;28;20212;-58
2022/01/18 13:52:10;;;;;;;7.97;7.32;;;7.40;74.40;;;;;;5054479;28;20317;-61
2022/01/18 13:54:48;;;;;;;9.70;8.52;;;7.50;74.20;;;;;;5054409;28;20206;-59